Terminal Aerodrome Forecast
Issued by NWS Shreveport, LA

Home | Current Version | Previous Version | Text Only | Print | Product List | Glossary On
Versions: 1 2 3 4 5 6 7 8 9 10 11 12 13 14 15
488
FTUS44 KSHV 301136
TAFTXK
TAF
KTXK 301136Z 3012/3112 05003KT 5SM BR BKN250
     FM301400 06005KT P6SM SCT250
     FM301700 06006KT P6SM SCT035 SCT250
     FM310100 05003KT P6SM FEW110 SCT250
     FM310600 05003KT P6SM SCT250
     FM310900 05003KT 5SM BR FEW250=

USA.gov is the U.S. government's official web portal to all federal, state and local government web resources and services.